Wetterdaten: Woche 07.03.22 - 13.03.22 (KW10)
Datum Zeit Temp. Aussen Temp. o. S. Temp +5cm Feuchte Auss Luftdruck Regen Sonnenschein Regendauer Solar Windben Empfang
07.03.2022 00:00 -1,2 C -2,6 C -5,8 C 79 % 1027,4 hPa 0,0 l/m 0,00 h 0,00 h 0 W/m 0,4 km/h (0 Bft) 97,15 %
07.03.2022 01:00 -2,1 C -3,1 C -6,3 C 81 % 1027,5 hPa 0,0 l/m 0,00 h 0,00 h 0 W/m 0,3 km/h (0 Bft) 95,15 %
07.03.2022 02:00 -2,5 C -3,0 C -6,2 C 83 % 1027,6 hPa 0,0 l/m 0,00 h 0,00 h 0 W/m 1,8 km/h (1 Bft) 95,38 %
07.03.2022 03:00 -2,1 C -2,2 C -5,5 C 85 % 1027,4 hPa 0,0 l/m 0,00 h 0,00 h 0 W/m 3,3 km/h (1 Bft) 97,04 %
07.03.2022 04:00 -1,2 C -1,7 C -5,0 C 86 % 1027,4 hPa 0,0 l/m 0,00 h 0,00 h 0 W/m 3,9 km/h (1 Bft) 97,13 %
07.03.2022 05:00 -0,8 C -1,7 C -4,9 C 85 % 1027,6 hPa 0,0 l/m 0,00 h 0,00 h 0 W/m 6,4 km/h (2 Bft) 97,22 %
07.03.2022 06:00 -0,5 C -1,1 C -4,4 C 83 % 1027,7 hPa 0,0 l/m 0,00 h 0,00 h 0 W/m 6,3 km/h (2 Bft) 95,46 %
07.03.2022 07:00 -0,3 C -1,1 C -4,4 C 81 % 1028,0 hPa 0,0 l/m 0,00 h 0,00 h 21 W/m 6,2 km/h (2 Bft) 98,73 %
07.03.2022 08:00 0,2 C 0,4 C -3,7 C 80 % 1028,2 hPa 0,0 l/m 0,23 h 0,00 h 99 W/m 6,8 km/h (2 Bft) 96,44 %
07.03.2022 09:00 2,4 C 4,4 C -1,7 C 67 % 1028,4 hPa 0,0 l/m 0,80 h 0,00 h 223 W/m 16,4 km/h (3 Bft) 96,94 %
07.03.2022 10:00 4,0 C 9,2 C 3,0 C 61 % 1028,3 hPa 0,0 l/m 0,87 h 0,00 h 379 W/m 15,5 km/h (3 Bft) 95,37 %
07.03.2022 11:00 5,8 C 15,6 C 6,7 C 58 % 1027,8 hPa 0,0 l/m 1,00 h 0,00 h 578 W/m 14,1 km/h (3 Bft) 94,60 %
07.03.2022 12:00 6,4 C 10,9 C 3,9 C 56 % 1027,1 hPa 0,0 l/m 0,90 h 0,00 h 478 W/m 15,7 km/h (3 Bft) 97,45 %
07.03.2022 13:00 7,8 C 18,0 C 3,6 C 53 % 1026,3 hPa 0,0 l/m 1,00 h 0,00 h 615 W/m 15,6 km/h (3 Bft) 98,44 %
07.03.2022 14:00 8,8 C 17,3 C 4,5 C 50 % 1025,4 hPa 0,0 l/m 1,00 h 0,00 h 546 W/m 15,7 km/h (3 Bft) 97,65 %
07.03.2022 15:00 9,0 C 16,0 C 4,8 C 51 % 1024,9 hPa 0,0 l/m 1,00 h 0,00 h 431 W/m 15,1 km/h (3 Bft) 95,77 %
07.03.2022 16:00 8,2 C 10,6 C 3,2 C 54 % 1024,5 hPa 0,0 l/m 1,00 h 0,00 h 269 W/m 16,7 km/h (3 Bft) 96,82 %
07.03.2022 17:00 6,8 C 6,2 C 2,2 C 59 % 1024,2 hPa 0,0 l/m 0,13 h 0,00 h 42 W/m 13,9 km/h (3 Bft) 96,63 %
07.03.2022 18:00 5,5 C 4,3 C 0,7 C 63 % 1024,3 hPa 0,0 l/m 0,00 h 0,00 h 10 W/m 10,2 km/h (2 Bft) 97,24 %
07.03.2022 19:00 4,5 C 3,3 C -0,2 C 65 % 1024,5 hPa 0,0 l/m 0,00 h 0,00 h 0 W/m 9,4 km/h (2 Bft) 98,22 %
07.03.2022 20:00 3,5 C 2,1 C -1,5 C 68 % 1025,0 hPa 0,0 l/m 0,00 h 0,00 h 0 W/m 2,6 km/h (1 Bft) 97,86 %
07.03.2022 21:00 2,3 C 0,7 C -3,1 C 71 % 1025,0 hPa 0,0 l/m 0,00 h 0,00 h 0 W/m 1,1 km/h (0 Bft) 96,02 %
07.03.2022 22:00 1,3 C 0,1 C -3,3 C 73 % 1024,8 hPa 0,0 l/m 0,00 h 0,00 h 0 W/m 3,8 km/h (1 Bft) 96,16 %
07.03.2022 23:00 1,3 C 0,4 C -3,1 C 71 % 1024,9 hPa 0,0 l/m 0,00 h 0,00 h 0 W/m 6,0 km/h (2 Bft) 98,07 %
08.03.2022 00:00 1,0 C -0,0 C -3,5 C 72 % 1024,9 hPa 0,0 l/m 0,00 h 0,00 h 0 W/m 4,9 km/h (1 Bft) 97,90 %
08.03.2022 01:00 0,6 C -0,8 C -4,1 C 73 % 1024,6 hPa 0,0 l/m 0,00 h 0,00 h 0 W/m 4,5 km/h (1 Bft) 94,56 %
08.03.2022 02:00 0,0 C -1,1 C -4,4 C 75 % 1024,3 hPa 0,0 l/m 0,00 h 0,00 h 0 W/m 5,2 km/h (1 Bft) 98,32 %
08.03.2022 03:00 0,5 C -0,1 C -3,6 C 74 % 1023,7 hPa 0,0 l/m 0,00 h 0,00 h 0 W/m 8,1 km/h (2 Bft) 98,79 %
08.03.2022 04:00 0,6 C -0,4 C -3,9 C 73 % 1023,3 hPa 0,0 l/m 0,00 h 0,00 h 0 W/m 7,8 km/h (2 Bft) 95,99 %
08.03.2022 05:00 0,6 C -0,0 C -3,8 C 73 % 1023,0 hPa 0,0 l/m 0,00 h 0,00 h 0 W/m 11,1 km/h (2 Bft) 97,16 %
08.03.2022 06:00 0,7 C 0,0 C -3,9 C 73 % 1023,0 hPa 0,0 l/m 0,00 h 0,00 h 0 W/m 12,1 km/h (2 Bft) 96,44 %
08.03.2022 07:00 0,8 C 0,3 C -3,5 C 72 % 1023,1 hPa 0,0 l/m 0,00 h 0,00 h 14 W/m 14,3 km/h (3 Bft) 96,08 %
08.03.2022 08:00 2,0 C 1,8 C -2,3 C 69 % 1023,2 hPa 0,0 l/m 0,20 h 0,00 h 78 W/m 15,9 km/h (3 Bft) 98,22 %
08.03.2022 09:00 4,5 C 6,0 C -0,1 C 61 % 1023,2 hPa 0,0 l/m 0,77 h 0,00 h 246 W/m 22,1 km/h (4 Bft) 98,36 %
08.03.2022 10:00 6,6 C 9,4 C 5,3 C 54 % 1022,9 hPa 0,0 l/m 0,97 h 0,00 h 384 W/m 29,6 km/h (5 Bft) 97,51 %
08.03.2022 11:00 8,1 C 11,9 C 8,2 C 49 % 1022,4 hPa 0,0 l/m 1,00 h 0,00 h 585 W/m 32,7 km/h (5 Bft) 98,85 %
08.03.2022 12:00 9,0 C 11,1 C 6,4 C 47 % 1021,9 hPa 0,0 l/m 0,97 h 0,00 h 496 W/m 29,1 km/h (5 Bft) 95,61 %
08.03.2022 13:00 10,2 C 15,6 C 6,0 C 44 % 1021,5 hPa 0,0 l/m 1,00 h 0,00 h 622 W/m 28,0 km/h (4 Bft) 98,16 %
08.03.2022 14:00 10,7 C 14,6 C 6,4 C 43 % 1020,9 hPa 0,0 l/m 1,00 h 0,00 h 556 W/m 26,8 km/h (4 Bft) 98,94 %
08.03.2022 15:00 11,3 C 15,1 C 6,9 C 42 % 1020,7 hPa 0,0 l/m 1,00 h 0,00 h 441 W/m 25,0 km/h (4 Bft) 93,93 %
08.03.2022 16:00 11,2 C 12,0 C 6,0 C 42 % 1020,5 hPa 0,0 l/m 1,00 h 0,00 h 277 W/m 22,8 km/h (4 Bft) 98,88 %
08.03.2022 17:00 10,1 C 9,2 C 5,2 C 45 % 1020,7 hPa 0,0 l/m 0,17 h 0,00 h 48 W/m 19,3 km/h (3 Bft) 97,73 %
08.03.2022 18:00 8,8 C 7,5 C 3,8 C 48 % 1020,9 hPa 0,0 l/m 0,00 h 0,00 h 10 W/m 13,3 km/h (3 Bft) 96,70 %
08.03.2022 19:00 7,4 C 6,1 C 2,3 C 52 % 1021,2 hPa 0,0 l/m 0,00 h 0,00 h 0 W/m 7,1 km/h (2 Bft) 97,78 %
08.03.2022 20:00 6,2 C 5,0 C 1,2 C 54 % 1021,6 hPa 0,0 l/m 0,00 h 0,00 h 0 W/m 7,2 km/h (2 Bft) 99,02 %
08.03.2022 21:00 5,5 C 4,2 C 0,3 C 56 % 1021,8 hPa 0,0 l/m 0,00 h 0,00 h 0 W/m 3,6 km/h (1 Bft) 95,35 %
08.03.2022 22:00 4,3 C 2,8 C -1,3 C 60 % 1022,0 hPa 0,0 l/m 0,00 h 0,00 h 0 W/m 2,2 km/h (1 Bft) 97,04 %
08.03.2022 23:00 3,0 C 1,4 C -2,4 C 65 % 1022,4 hPa 0,0 l/m 0,00 h 0,00 h 0 W/m 1,7 km/h (1 Bft) 97,70 %
09.03.2022 00:00 2,0 C 1,2 C -3,1 C 68 % 1022,7 hPa 0,0 l/m 0,00 h 0,00 h 0 W/m 2,8 km/h (1 Bft) 98,13 %
09.03.2022 01:00 2,7 C 2,0 C -1,6 C 64 % 1022,9 hPa 0,0 l/m 0,00 h 0,00 h 0 W/m 6,3 km/h (2 Bft) 96,43 %
09.03.2022 02:00 2,4 C 1,7 C -1,8 C 64 % 1023,0 hPa 0,0 l/m 0,00 h 0,00 h 0 W/m 8,1 km/h (2 Bft) 96,67 %
09.03.2022 03:00 2,2 C 1,3 C -2,1 C 65 % 1022,8 hPa 0,0 l/m 0,00 h 0,00 h 0 W/m 8,8 km/h (2 Bft) 97,81 %
09.03.2022 04:00 1,9 C 1,1 C -2,2 C 66 % 1022,6 hPa 0,0 l/m 0,00 h 0,00 h 0 W/m 12,5 km/h (3 Bft) 97,68 %
09.03.2022 05:00 1,9 C 1,0 C -2,3 C 65 % 1022,6 hPa 0,0 l/m 0,00 h 0,00 h 0 W/m 13,0 km/h (3 Bft) 96,88 %
09.03.2022 06:00 1,5 C 0,6 C -2,9 C 67 % 1022,7 hPa 0,0 l/m 0,00 h 0,00 h 0 W/m 9,2 km/h (2 Bft) 97,28 %
09.03.2022 07:00 1,3 C 0,8 C -2,9 C 68 % 1023,1 hPa 0,0 l/m 0,00 h 0,00 h 16 W/m 9,2 km/h (2 Bft) 97,79 %
09.03.2022 08:00 2,6 C 2,8 C -1,5 C 65 % 1023,4 hPa 0,0 l/m 0,25 h 0,00 h 82 W/m 17,1 km/h (3 Bft) 96,25 %
09.03.2022 09:00 5,6 C 6,9 C 1,1 C 56 % 1023,9 hPa 0,0 l/m 0,80 h 0,00 h 255 W/m 19,0 km/h (3 Bft) 98,26 %
09.03.2022 10:00 7,6 C 10,9 C 7,0 C 51 % 1023,9 hPa 0,0 l/m 0,93 h 0,00 h 398 W/m 20,8 km/h (4 Bft) 97,37 %
09.03.2022 11:00 9,9 C 14,9 C 11,3 C 47 % 1023,8 hPa 0,0 l/m 1,00 h 0,00 h 594 W/m 20,7 km/h (4 Bft) 98,65 %
09.03.2022 12:00 11,2 C 14,0 C 9,3 C 45 % 1023,5 hPa 0,0 l/m 0,97 h 0,00 h 513 W/m 18,6 km/h (3 Bft) 99,54 %
09.03.2022 13:00 13,2 C 20,5 C 8,7 C 43 % 1023,1 hPa 0,0 l/m 1,00 h 0,00 h 625 W/m 17,1 km/h (3 Bft) 96,43 %
09.03.2022 14:00 14,2 C 19,2 C 9,2 C 41 % 1022,6 hPa 0,0 l/m 1,00 h 0,00 h 556 W/m 15,4 km/h (3 Bft) 98,36 %
09.03.2022 15:00 14,8 C 19,8 C 9,4 C 39 % 1022,4 hPa 0,0 l/m 1,00 h 0,00 h 436 W/m 13,8 km/h (3 Bft) 98,03 %
09.03.2022 16:00 14,6 C 16,1 C 8,7 C 38 % 1022,2 hPa 0,0 l/m 1,00 h 0,00 h 275 W/m 10,9 km/h (2 Bft) 97,09 %
09.03.2022 17:00 12,8 C 11,7 C 7,3 C 41 % 1022,3 hPa 0,0 l/m 0,20 h 0,00 h 43 W/m 7,3 km/h (2 Bft) 97,87 %
09.03.2022 18:00 11,0 C 9,2 C 5,2 C 45 % 1022,6 hPa 0,0 l/m 0,00 h 0,00 h 12 W/m 4,3 km/h (1 Bft) 97,60 %
09.03.2022 19:00 9,5 C 8,0 C 3,8 C 48 % 1023,2 hPa 0,0 l/m 0,00 h 0,00 h 0 W/m 4,7 km/h (1 Bft) 97,30 %
09.03.2022 20:00 8,6 C 7,3 C 3,2 C 51 % 1023,3 hPa 0,0 l/m 0,00 h 0,00 h 0 W/m 4,6 km/h (1 Bft) 98,93 %
09.03.2022 21:00 7,7 C 6,6 C 2,7 C 52 % 1023,6 hPa 0,0 l/m 0,00 h 0,00 h 0 W/m 7,8 km/h (2 Bft) 95,87 %
09.03.2022 22:00 7,0 C 6,0 C 2,1 C 53 % 1024,1 hPa 0,0 l/m 0,00 h 0,00 h 0 W/m 8,0 km/h (2 Bft) 96,63 %
09.03.2022 23:00 6,3 C 5,2 C 1,6 C 55 % 1024,2 hPa 0,0 l/m 0,00 h 0,00 h 0 W/m 6,5 km/h (2 Bft) 97,31 %
10.03.2022 00:00 5,7 C 4,7 C 1,1 C 56 % 1024,4 hPa 0,0 l/m 0,00 h 0,00 h 0 W/m 8,4 km/h (2 Bft) 96,65 %
10.03.2022 01:00 5,2 C 4,2 C 0,7 C 57 % 1024,7 hPa 0,0 l/m 0,00 h 0,00 h 0 W/m 11,3 km/h (2 Bft) 96,57 %
10.03.2022 02:00 4,8 C 3,8 C 0,3 C 57 % 1024,7 hPa 0,0 l/m 0,00 h 0,00 h 0 W/m 11,0 km/h (2 Bft) 97,83 %
10.03.2022 03:00 4,1 C 3,3 C -0,3 C 59 % 1024,6 hPa 0,0 l/m 0,00 h 0,00 h 0 W/m 10,4 km/h (2 Bft) 97,86 %
10.03.2022 04:00 3,8 C 2,9 C -0,6 C 61 % 1024,5 hPa 0,0 l/m 0,00 h 0,00 h 0 W/m 10,7 km/h (2 Bft) 96,46 %
10.03.2022 05:00 3,4 C 2,5 C -1,0 C 62 % 1024,7 hPa 0,0 l/m 0,00 h 0,00 h 0 W/m 10,7 km/h (2 Bft) 98,44 %
10.03.2022 06:00 2,7 C 1,7 C -1,7 C 65 % 1024,9 hPa 0,0 l/m 0,00 h 0,00 h 0 W/m 9,7 km/h (2 Bft) 97,94 %
10.03.2022 07:00 2,8 C 2,4 C -1,3 C 65 % 1025,2 hPa 0,0 l/m 0,00 h 0,00 h 18 W/m 13,6 km/h (3 Bft) 95,14 %
10.03.2022 08:00 3,8 C 4,0 C -0,2 C 64 % 1025,5 hPa 0,0 l/m 0,23 h 0,00 h 86 W/m 13,1 km/h (3 Bft) 97,32 %
10.03.2022 09:00 7,3 C 9,1 C 3,0 C 57 % 1025,4 hPa 0,0 l/m 0,80 h 0,00 h 259 W/m 15,6 km/h (3 Bft) 95,08 %
10.03.2022 10:00 9,9 C 13,6 C 9,7 C 51 % 1025,0 hPa 0,0 l/m 0,87 h 0,00 h 388 W/m 16,5 km/h (3 Bft) 96,73 %
10.03.2022 11:00 12,5 C 17,1 C 13,3 C 45 % 1024,7 hPa 0,0 l/m 1,00 h 0,00 h 589 W/m 19,9 km/h (4 Bft) 96,29 %
10.03.2022 12:00 14,1 C 16,5 C 11,7 C 44 % 1024,1 hPa 0,0 l/m 1,00 h 0,00 h 519 W/m 19,5 km/h (3 Bft) 96,98 %
10.03.2022 13:00 16,0 C 21,8 C 11,5 C 40 % 1023,5 hPa 0,0 l/m 1,00 h 0,00 h 619 W/m 19,5 km/h (3 Bft) 98,22 %
10.03.2022 14:00 16,7 C 20,5 C 11,8 C 36 % 1022,8 hPa 0,0 l/m 1,00 h 0,00 h 556 W/m 22,3 km/h (4 Bft) 99,28 %
10.03.2022 15:00 17,0 C 21,0 C 12,0 C 34 % 1022,2 hPa 0,0 l/m 1,00 h 0,00 h 447 W/m 23,5 km/h (4 Bft) 94,94 %
10.03.2022 16:00 16,6 C 18,0 C 11,0 C 35 % 1021,6 hPa 0,0 l/m 1,00 h 0,00 h 290 W/m 21,8 km/h (4 Bft) 98,36 %
10.03.2022 17:00 15,2 C 14,0 C 9,8 C 40 % 1021,2 hPa 0,0 l/m 0,23 h 0,00 h 56 W/m 14,7 km/h (3 Bft) 97,86 %
10.03.2022 18:00 13,2 C 11,8 C 7,8 C 45 % 1021,2 hPa 0,0 l/m 0,00 h 0,00 h 12 W/m 10,3 km/h (2 Bft) 97,35 %
10.03.2022 19:00 11,5 C 10,3 C 6,4 C 48 % 1021,2 hPa 0,0 l/m 0,00 h 0,00 h 0 W/m 8,6 km/h (2 Bft) 98,86 %
10.03.2022 20:00 10,7 C 9,6 C 5,8 C 48 % 1020,9 hPa 0,0 l/m 0,00 h 0,00 h 0 W/m 11,5 km/h (2 Bft) 95,51 %
10.03.2022 21:00 9,8 C 8,5 C 4,7 C 51 % 1020,8 hPa 0,0 l/m 0,00 h 0,00 h 0 W/m 7,5 km/h (2 Bft) 98,22 %
10.03.2022 22:00 8,2 C 6,5 C 2,6 C 56 % 1020,6 hPa 0,0 l/m 0,00 h 0,00 h 0 W/m 4,1 km/h (1 Bft) 97,86 %
10.03.2022 23:00 7,6 C 6,7 C 2,8 C 57 % 1020,1 hPa 0,0 l/m 0,00 h 0,00 h 0 W/m 6,7 km/h (2 Bft) 97,37 %
11.03.2022 00:00 7,5 C 6,6 C 2,8 C 56 % 1019,6 hPa 0,0 l/m 0,00 h 0,00 h 0 W/m 8,8 km/h (2 Bft) 97,71 %
11.03.2022 01:00 7,6 C 7,0 C 3,1 C 54 % 1019,4 hPa 0,0 l/m 0,00 h 0,00 h 0 W/m 16,4 km/h (3 Bft) 97,43 %
11.03.2022 02:00 7,8 C 6,8 C 3,0 C 53 % 1019,0 hPa 0,0 l/m 0,00 h 0,00 h 0 W/m 17,3 km/h (3 Bft) 98,93 %
11.03.2022 03:00 7,1 C 6,2 C 2,3 C 56 % 1018,6 hPa 0,0 l/m 0,00 h 0,00 h 0 W/m 14,7 km/h (3 Bft) 95,87 %
11.03.2022 04:00 6,7 C 5,8 C 2,2 C 58 % 1018,2 hPa 0,0 l/m 0,00 h 0,00 h 0 W/m 17,5 km/h (3 Bft) 99,50 %
11.03.2022 05:00 6,4 C 5,6 C 1,8 C 60 % 1018,1 hPa 0,0 l/m 0,00 h 0,00 h 0 W/m 21,2 km/h (4 Bft) 97,36 %
11.03.2022 06:00 5,9 C 5,0 C 1,4 C 62 % 1017,9 hPa 0,0 l/m 0,00 h 0,00 h 4 W/m 22,0 km/h (4 Bft) 96,67 %
11.03.2022 07:00 5,6 C 5,0 C 1,1 C 63 % 1017,7 hPa 0,0 l/m 0,00 h 0,00 h 19 W/m 27,1 km/h (4 Bft) 98,65 %
11.03.2022 08:00 5,9 C 5,7 C 1,6 C 63 % 1017,7 hPa 0,0 l/m 0,23 h 0,00 h 88 W/m 29,8 km/h (5 Bft) 96,10 %
11.03.2022 09:00 7,2 C 8,1 C 2,8 C 58 % 1017,5 hPa 0,0 l/m 0,83 h 0,00 h 261 W/m 32,6 km/h (5 Bft) 95,83 %
11.03.2022 10:00 8,8 C 11,1 C 6,1 C 55 % 1017,1 hPa 0,0 l/m 0,97 h 0,00 h 397 W/m 28,5 km/h (4 Bft) 99,07 %
11.03.2022 11:00 10,5 C 14,7 C 10,9 C 51 % 1016,8 hPa 0,0 l/m 1,00 h 0,00 h 585 W/m 29,6 km/h (5 Bft) 97,82 %
11.03.2022 12:00 11,7 C 13,7 C 9,1 C 50 % 1016,1 hPa 0,0 l/m 1,00 h 0,00 h 532 W/m 29,3 km/h (5 Bft) 98,01 %
11.03.2022 13:00 13,0 C 18,0 C 8,7 C 48 % 1015,2 hPa 0,0 l/m 1,00 h 0,00 h 617 W/m 28,1 km/h (4 Bft) 98,86 %
11.03.2022 14:00 14,2 C 17,7 C 9,6 C 47 % 1014,2 hPa 0,0 l/m 1,00 h 0,00 h 551 W/m 28,5 km/h (4 Bft) 96,16 %
11.03.2022 15:00 14,6 C 17,8 C 9,9 C 46 % 1013,8 hPa 0,0 l/m 1,00 h 0,00 h 434 W/m 29,3 km/h (5 Bft) 98,29 %
11.03.2022 16:00 14,3 C 15,3 C 9,2 C 44 % 1013,5 hPa 0,0 l/m 0,90 h 0,00 h 255 W/m 28,3 km/h (4 Bft) 99,06 %
11.03.2022 17:00 13,1 C 12,3 C 8,1 C 46 % 1013,6 hPa 0,0 l/m 0,00 h 0,00 h 42 W/m 23,7 km/h (4 Bft) 95,74 %
11.03.2022 18:00 12,0 C 11,1 C 7,2 C 47 % 1014,2 hPa 0,0 l/m 0,00 h 0,00 h 11 W/m 24,2 km/h (4 Bft) 97,99 %
11.03.2022 19:00 11,3 C 10,5 C 6,7 C 48 % 1014,6 hPa 0,0 l/m 0,00 h 0,00 h 0 W/m 26,2 km/h (4 Bft) 95,87 %
11.03.2022 20:00 10,7 C 9,8 C 6,0 C 48 % 1014,7 hPa 0,0 l/m 0,00 h 0,00 h 0 W/m 26,4 km/h (4 Bft) 98,49 %
11.03.2022 21:00 10,1 C 9,2 C 5,4 C 48 % 1015,0 hPa 0,0 l/m 0,00 h 0,00 h 0 W/m 21,8 km/h (4 Bft) 97,37 %
11.03.2022 22:00 9,8 C 8,9 C 5,0 C 47 % 1015,1 hPa 0,0 l/m 0,00 h 0,00 h 0 W/m 23,3 km/h (4 Bft) 98,15 %
11.03.2022 23:00 10,0 C 9,4 C 5,6 C 43 % 1014,9 hPa 0,0 l/m 0,00 h 0,00 h 0 W/m 27,2 km/h (4 Bft) 96,94 %
12.03.2022 00:00 10,1 C 9,4 C 5,6 C 41 % 1015,1 hPa 0,0 l/m 0,00 h 0,00 h 0 W/m 27,4 km/h (4 Bft) 97,52 %
12.03.2022 01:00 9,9 C 9,1 C 5,2 C 41 % 1015,4 hPa 0,0 l/m 0,00 h 0,00 h 0 W/m 26,8 km/h (4 Bft) 95,79 %
12.03.2022 02:00 9,4 C 8,4 C 4,6 C 43 % 1015,5 hPa 0,0 l/m 0,00 h 0,00 h 0 W/m 22,3 km/h (4 Bft) 98,22 %
12.03.2022 03:00 8,9 C 8,0 C 3,8 C 48 % 1015,8 hPa 0,0 l/m 0,00 h 0,23 h 0 W/m 22,3 km/h (4 Bft) 97,22 %
12.03.2022 04:00 8,2 C 7,6 C 3,7 C 53 % 1015,9 hPa 0,0 l/m 0,00 h 0,00 h 0 W/m 19,7 km/h (3 Bft) 98,29 %
12.03.2022 05:00 8,2 C 7,3 C 3,7 C 51 % 1016,4 hPa 0,0 l/m 0,00 h 0,00 h 0 W/m 20,3 km/h (4 Bft) 95,66 %
12.03.2022 06:00 7,5 C 6,5 C 2,8 C 54 % 1016,8 hPa 0,0 l/m 0,00 h 0,00 h 7 W/m 16,6 km/h (3 Bft) 99,34 %
12.03.2022 07:00 7,1 C 6,5 C 2,8 C 57 % 1017,1 hPa 0,0 l/m 0,00 h 0,00 h 35 W/m 14,1 km/h (3 Bft) 95,66 %
12.03.2022 08:00 8,0 C 8,0 C 3,9 C 60 % 1017,4 hPa 0,0 l/m 0,23 h 0,00 h 115 W/m 16,1 km/h (3 Bft) 96,94 %
12.03.2022 09:00 10,4 C 11,6 C 6,5 C 63 % 1018,0 hPa 0,0 l/m 1,00 h 0,00 h 304 W/m 19,8 km/h (4 Bft) 97,19 %
12.03.2022 10:00 12,6 C 13,9 C 9,8 C 68 % 1018,3 hPa 0,0 l/m 1,00 h 0,00 h 363 W/m 21,7 km/h (4 Bft) 97,79 %
12.03.2022 11:00 14,1 C 16,9 C 12,9 C 65 % 1018,3 hPa 0,0 l/m 1,00 h 0,00 h 485 W/m 19,8 km/h (4 Bft) 97,37 %
12.03.2022 12:00 14,7 C 15,7 C 11,5 C 61 % 1018,3 hPa 0,0 l/m 0,97 h 0,00 h 363 W/m 17,1 km/h (3 Bft) 96,61 %
12.03.2022 13:00 15,2 C 16,6 C 11,2 C 60 % 1018,0 hPa 0,0 l/m 0,73 h 0,00 h 384 W/m 17,6 km/h (3 Bft) 97,58 %
12.03.2022 14:00 15,2 C 15,9 C 11,0 C 61 % 1017,7 hPa 0,0 l/m 0,60 h 0,00 h 301 W/m 18,6 km/h (3 Bft) 98,18 %
12.03.2022 15:00 15,4 C 16,2 C 11,0 C 59 % 1017,4 hPa 0,0 l/m 0,70 h 0,00 h 279 W/m 18,2 km/h (3 Bft) 95,04 %
12.03.2022 16:00 15,1 C 14,9 C 10,4 C 59 % 1017,2 hPa 0,0 l/m 0,27 h 0,00 h 138 W/m 16,7 km/h (3 Bft) 98,51 %
12.03.2022 17:00 14,3 C 13,5 C 9,4 C 61 % 1016,8 hPa 0,0 l/m 0,13 h 0,00 h 62 W/m 16,7 km/h (3 Bft) 97,72 %
12.03.2022 18:00 13,0 C 11,8 C 8,1 C 64 % 1016,7 hPa 0,0 l/m 0,00 h 0,00 h 15 W/m 12,8 km/h (3 Bft) 96,62 %
12.03.2022 19:00 11,8 C 10,8 C 7,1 C 65 % 1016,8 hPa 0,0 l/m 0,00 h 0,00 h 0 W/m 15,2 km/h (3 Bft) 98,29 %
12.03.2022 20:00 10,8 C 9,8 C 6,3 C 67 % 1016,8 hPa 0,0 l/m 0,00 h 0,00 h 0 W/m 13,8 km/h (3 Bft) 98,43 %
12.03.2022 21:00 10,4 C 9,6 C 6,1 C 67 % 1016,9 hPa 0,0 l/m 0,00 h 0,00 h 0 W/m 19,0 km/h (3 Bft) 95,94 %
12.03.2022 22:00 10,2 C 9,2 C 5,6 C 65 % 1017,0 hPa 0,0 l/m 0,00 h 0,00 h 0 W/m 17,9 km/h (3 Bft) 99,57 %
12.03.2022 23:00 9,2 C 8,1 C 4,6 C 69 % 1016,8 hPa 0,0 l/m 0,00 h 0,00 h 0 W/m 14,3 km/h (3 Bft) 96,44 %
13.03.2022 00:00 9,2 C 8,4 C 5,0 C 69 % 1016,7 hPa 0,0 l/m 0,00 h 0,00 h 0 W/m 12,8 km/h (3 Bft) 96,35 %
13.03.2022 01:00 9,1 C 8,1 C 4,5 C 70 % 1016,6 hPa 0,0 l/m 0,00 h 0,00 h 0 W/m 10,8 km/h (2 Bft) 97,58 %
13.03.2022 02:00 8,4 C 7,6 C 3,9 C 71 % 1016,0 hPa 0,0 l/m 0,00 h 0,00 h 0 W/m 11,1 km/h (2 Bft) 98,22 %
13.03.2022 03:00 7,8 C 6,8 C 3,2 C 68 % 1015,5 hPa 0,0 l/m 0,00 h 0,00 h 0 W/m 10,4 km/h (2 Bft) 96,79 %
13.03.2022 04:00 7,0 C 6,1 C 2,8 C 64 % 1015,3 hPa 0,0 l/m 0,00 h 0,00 h 0 W/m 12,6 km/h (3 Bft) 95,81 %
13.03.2022 05:00 7,1 C 6,5 C 3,1 C 60 % 1015,0 hPa 0,0 l/m 0,00 h 0,00 h 0 W/m 15,1 km/h (3 Bft) 98,72 %
13.03.2022 06:00 7,3 C 6,7 C 2,9 C 57 % 1015,0 hPa 0,0 l/m 0,00 h 0,00 h 7 W/m 14,8 km/h (3 Bft) 95,44 %
13.03.2022 07:00 7,3 C 6,7 C 3,0 C 55 % 1015,3 hPa 0,0 l/m 0,00 h 0,00 h 14 W/m 13,8 km/h (3 Bft) 98,72 %
13.03.2022 08:00 7,6 C 7,2 C 3,4 C 54 % 1015,2 hPa 0,0 l/m 0,00 h 0,00 h 44 W/m 15,2 km/h (3 Bft) 97,06 %
13.03.2022 09:00 8,9 C 9,5 C 5,0 C 51 % 1015,2 hPa 0,0 l/m 0,63 h 0,00 h 222 W/m 18,3 km/h (3 Bft) 96,23 %
13.03.2022 10:00 10,8 C 14,0 C 10,1 C 48 % 1015,1 hPa 0,0 l/m 0,87 h 0,00 h 422 W/m 18,2 km/h (3 Bft) 96,89 %
13.03.2022 11:00 13,2 C 18,0 C 14,2 C 46 % 1014,8 hPa 0,0 l/m 1,00 h 0,00 h 602 W/m 20,3 km/h (4 Bft) 97,86 %
13.03.2022 12:00 14,7 C 17,2 C 12,3 C 48 % 1014,3 hPa 0,0 l/m 1,00 h 0,00 h 549 W/m 21,3 km/h (4 Bft) 97,71 %
13.03.2022 13:00 16,7 C 22,4 C 12,2 C 48 % 1013,5 hPa 0,0 l/m 1,00 h 0,00 h 635 W/m 24,1 km/h (4 Bft) 99,00 %
13.03.2022 14:00 17,8 C 22,2 C 13,0 C 46 % 1013,1 hPa 0,0 l/m 1,00 h 0,00 h 565 W/m 21,0 km/h (4 Bft) 95,59 %
13.03.2022 15:00 17,4 C 18,0 C 12,4 C 47 % 1013,0 hPa 0,0 l/m 0,30 h 0,00 h 209 W/m 21,0 km/h (4 Bft) 99,07 %
13.03.2022 16:00 17,1 C 18,2 C 12,0 C 48 % 1012,9 hPa 0,0 l/m 0,80 h 0,00 h 254 W/m 21,2 km/h (4 Bft) 98,58 %
13.03.2022 17:00 16,4 C 15,5 C 11,2 C 49 % 1013,2 hPa 0,0 l/m 0,10 h 0,00 h 49 W/m 19,0 km/h (3 Bft) 96,16 %
13.03.2022 18:00 15,4 C 14,3 C 10,4 C 51 % 1013,7 hPa 0,0 l/m 0,00 h 0,00 h 7 W/m 16,8 km/h (3 Bft) 99,60 %
13.03.2022 19:00 14,7 C 13,8 C 9,6 C 56 % 1014,6 hPa 0,0 l/m 0,00 h 0,00 h 0 W/m 16,8 km/h (3 Bft) 95,73 %
13.03.2022 20:00 13,7 C 12,7 C 8,9 C 64 % 1015,6 hPa 0,0 l/m 0,00 h 0,00 h 0 W/m 21,9 km/h (4 Bft) 98,63 %
13.03.2022 21:00 12,7 C 11,9 C 7,8 C 69 % 1016,4 hPa 0,0 l/m 0,00 h 0,03 h 0 W/m 23,5 km/h (4 Bft) 98,29 %
13.03.2022 22:00 12,0 C 11,1 C 7,2 C 73 % 1016,9 hPa 0,0 l/m 0,00 h 0,00 h 0 W/m 7,8 km/h (2 Bft) 95,13 %
13.03.2022 23:00 11,6 C 10,5 C 6,9 C 74 % 1017,3 hPa 0,0 l/m 0,00 h 0,00 h 0 W/m 4,4 km/h (1 Bft) 98,07 %
Min-Datum _ 07.03.22 07.03.22 07.03.22 10.03.22 13.03.22 - - - - 07.03.22 07.03.22
_ Min-Zeit 02:26 00:52 01:22 14:58 16:18 - - - - 00:00 03:04
Minimum _ -2,6 C -3,3 C -6,7 C 33 % 1012,8 hPa - - - - 0,0 km/h (0 Bft) 41,18 %
Max-Datum _ 13.03.22 13.03.22 12.03.22 07.03.22 07.03.22 07.03.22 09.03.22 12.03.22 12.03.22 11.03.22 07.03.22
_ Max-Zeit 15:00 13:14 11:30 03:32 10:04 00:00 17:05 03:28 13:08 09:08 00:14
Maximum _ 18,3 C 23,3 C 15,6 C 86 % 1028,6 hPa 0,0 l/m 0,08 h 0,03 h 707 W/m 51,5 km/h
S-SO (7 Bft)
100,00 %
Durchschnitt _ 8,2 C 8,7 C 4,0 C 57 % 1020,5 hPa #0,0 l/m #53:33 h #16 min. 291 W/m 15,3 km/h (3 Bft) 97,30 %
© 2022 W. Hausmann